createdAt,value
2018-10-09T00:00:46.722Z,13.60
2018-10-09T00:03:14.982Z,13.60
2018-10-09T00:05:43.405Z,13.60
2018-10-09T00:08:11.830Z,13.60
2018-10-09T00:10:40.206Z,13.50
2018-10-09T00:13:08.617Z,13.60
2018-10-09T00:15:37.006Z,13.90
2018-10-09T00:18:05.405Z,14.00
2018-10-09T00:20:33.780Z,14.00
2018-10-09T00:23:02.160Z,14.00
2018-10-09T00:25:30.636Z,13.90
2018-10-09T00:27:59.002Z,13.50
2018-10-09T00:30:27.392Z,13.60
2018-10-09T00:32:56.124Z,13.50
2018-10-09T00:35:24.506Z,13.70
2018-10-09T00:37:52.845Z,13.70
2018-10-09T00:40:21.225Z,13.60
2018-10-09T00:42:49.633Z,13.60
2018-10-09T00:45:18.005Z,13.70
2018-10-09T00:47:46.554Z,13.60
2018-10-09T00:50:14.926Z,13.70
2018-10-09T00:52:43.282Z,13.70
2018-10-09T00:55:11.717Z,13.80
2018-10-09T00:57:40.090Z,13.80
2018-10-09T01:00:08.686Z,13.70
2018-10-09T01:05:16.195Z,13.40
2018-10-09T01:07:44.681Z,13.60
2018-10-09T01:10:13.079Z,13.60
2018-10-09T01:12:41.455Z,13.70
2018-10-09T01:15:09.893Z,13.70
2018-10-09T01:17:38.307Z,13.50
2018-10-09T01:20:06.904Z,13.30
2018-10-09T01:22:35.346Z,13.30
2018-10-09T01:25:03.833Z,13.20
2018-10-09T01:27:32.223Z,13.20
2018-10-09T01:30:00.643Z,13.30
2018-10-09T01:32:29.064Z,13.20
2018-10-09T01:34:57.439Z,13.20
2018-10-09T01:37:25.832Z,13.20
2018-10-09T01:39:54.206Z,13.10
2018-10-09T01:42:22.620Z,13.10
2018-10-09T01:44:50.994Z,12.90
2018-10-09T01:47:19.394Z,12.90
2018-10-09T01:49:47.763Z,12.80
2018-10-09T01:52:16.159Z,12.80
2018-10-09T01:54:44.547Z,12.80
2018-10-09T01:57:12.918Z,12.90
2018-10-09T01:59:41.299Z,13.00
2018-10-09T02:02:09.798Z,13.10
2018-10-09T02:04:38.164Z,13.10
2018-10-09T02:07:06.694Z,13.30
2018-10-09T02:09:35.071Z,13.30
2018-10-09T02:12:03.479Z,13.20
2018-10-09T02:14:31.909Z,12.40
2018-10-09T02:17:00.323Z,12.00
2018-10-09T02:19:28.707Z,12.30
2018-10-09T02:21:57.210Z,12.50
2018-10-09T02:24:25.600Z,12.70
2018-10-09T02:26:54.034Z,12.70
2018-10-09T02:29:22.426Z,12.80
2018-10-09T02:31:50.852Z,12.90
2018-10-09T02:34:19.214Z,12.60
2018-10-09T02:36:47.596Z,12.60
2018-10-09T02:39:16.044Z,12.50
2018-10-09T02:41:44.425Z,12.50
2018-10-09T02:44:12.816Z,12.70
2018-10-09T02:46:41.207Z,12.70
2018-10-09T02:49:09.595Z,12.80
2018-10-09T02:51:37.997Z,12.80
2018-10-09T02:54:06.648Z,12.90
2018-10-09T02:56:35.035Z,12.70
2018-10-09T02:59:03.473Z,12.80
2018-10-09T03:01:31.864Z,12.80
2018-10-09T03:04:00.270Z,12.90
2018-10-09T03:06:28.674Z,13.10
2018-10-09T03:08:57.079Z,12.80
2018-10-09T03:11:25.464Z,12.80
2018-10-09T03:13:53.896Z,12.80
2018-10-09T03:16:22.295Z,12.50
2018-10-09T03:18:50.720Z,12.00
2018-10-09T03:21:19.107Z,12.00
2018-10-09T03:23:47.531Z,12.10
2018-10-09T03:26:15.938Z,12.30
2018-10-09T03:28:44.402Z,12.30
2018-10-09T03:31:12.799Z,12.50
2018-10-09T03:33:41.263Z,12.50
2018-10-09T03:36:09.630Z,12.50
2018-10-09T03:38:38.141Z,12.50
2018-10-09T03:41:06.947Z,12.60
2018-10-09T03:43:35.326Z,12.80
2018-10-09T03:46:03.707Z,12.90
2018-10-09T03:48:32.107Z,13.00
2018-10-09T03:51:00.498Z,13.00
2018-10-09T03:53:28.903Z,12.90
2018-10-09T03:55:57.294Z,12.70
2018-10-09T03:58:25.715Z,12.60
2018-10-09T04:00:54.101Z,12.50
2018-10-09T04:03:22.490Z,12.40
2018-10-09T04:05:50.860Z,12.40
2018-10-09T04:08:19.320Z,12.50
2018-10-09T04:10:47.735Z,12.60
2018-10-09T04:13:16.126Z,12.50
2018-10-09T04:15:44.546Z,12.40
2018-10-09T04:18:12.955Z,12.30
2018-10-09T04:20:41.339Z,12.20
2018-10-09T04:23:09.748Z,12.30
2018-10-09T04:25:38.207Z,12.10
2018-10-09T04:28:06.659Z,12.10
2018-10-09T04:30:35.101Z,12.10
2018-10-09T04:33:03.504Z,12.20
2018-10-09T04:35:31.964Z,12.30
2018-10-09T04:38:00.343Z,12.20
2018-10-09T04:40:28.774Z,12.20
2018-10-09T04:42:57.165Z,12.10
2018-10-09T04:45:28.725Z,12.00
2018-10-09T04:47:58.164Z,12.20
2018-10-09T04:50:26.576Z,12.30
2018-10-09T04:52:54.987Z,12.20
2018-10-09T04:55:23.425Z,12.20
2018-10-09T04:57:51.882Z,12.50
2018-10-09T05:00:20.325Z,12.50
2018-10-09T05:02:48.747Z,12.60
2018-10-09T05:05:17.232Z,12.40
2018-10-09T05:07:45.607Z,12.30
2018-10-09T05:10:17.153Z,12.40
2018-10-09T05:12:45.539Z,12.40
2018-10-09T05:15:13.954Z,12.50
2018-10-09T05:17:42.385Z,12.50
2018-10-09T05:20:11.254Z,12.40
2018-10-09T05:22:39.989Z,12.20
2018-10-09T05:25:08.818Z,12.00
2018-10-09T05:27:37.306Z,12.10
2018-10-09T05:30:05.719Z,12.10
2018-10-09T05:32:34.079Z,12.10
2018-10-09T05:35:02.484Z,11.90
2018-10-09T05:37:30.919Z,11.80
2018-10-09T05:39:59.394Z,11.90
2018-10-09T05:42:27.795Z,12.10
2018-10-09T05:44:56.227Z,12.30
2018-10-09T05:47:24.608Z,12.40
2018-10-09T05:49:53.111Z,12.20
2018-10-09T05:52:21.515Z,12.20
2018-10-09T05:54:50.139Z,12.10
2018-10-09T05:57:18.510Z,11.90
2018-10-09T05:59:47.830Z,11.80
2018-10-09T06:02:17.655Z,11.80
2018-10-09T06:04:46.043Z,12.00
2018-10-09T06:07:14.535Z,12.10
2018-10-09T06:09:42.978Z,12.20
2018-10-09T06:12:11.466Z,12.20
2018-10-09T06:14:39.954Z,12.10
2018-10-09T06:17:08.370Z,12.20
2018-10-09T06:19:36.755Z,12.30
2018-10-09T06:22:05.362Z,12.30
2018-10-09T06:24:33.828Z,12.50
2018-10-09T06:27:02.249Z,12.60
2018-10-09T06:29:30.925Z,12.70
2018-10-09T06:31:59.440Z,12.80
2018-10-09T06:34:27.883Z,12.80
2018-10-09T06:36:56.343Z,12.90
2018-10-09T06:39:24.759Z,12.80
2018-10-09T06:41:53.263Z,12.80
2018-10-09T06:44:21.700Z,12.80
2018-10-09T06:46:50.112Z,12.90
2018-10-09T06:49:18.719Z,13.10
2018-10-09T06:51:47.067Z,13.20
2018-10-09T06:54:17.026Z,13.30
2018-10-09T06:56:45.570Z,13.60
2018-10-09T06:59:13.927Z,13.80
2018-10-09T07:01:42.287Z,13.80
2018-10-09T07:04:10.673Z,13.90
2018-10-09T07:06:39.135Z,14.20
2018-10-09T07:09:09.811Z,14.30
2018-10-09T07:11:38.278Z,14.50
2018-10-09T07:14:06.708Z,14.70
2018-10-09T07:16:35.181Z,15.00
2018-10-09T07:19:03.843Z,15.10
2018-10-09T07:21:32.253Z,15.20
2018-10-09T07:24:00.875Z,15.50
2018-10-09T07:26:29.305Z,15.70
2018-10-09T07:28:57.748Z,15.80
2018-10-09T07:31:26.164Z,16.00
2018-10-09T07:33:54.622Z,16.20
2018-10-09T07:36:23.027Z,16.40
2018-10-09T07:38:51.448Z,16.60
2018-10-09T07:41:19.860Z,16.90
2018-10-09T07:43:48.324Z,17.00
2018-10-09T07:46:16.895Z,17.30
2018-10-09T07:48:45.252Z,17.50
2018-10-09T07:51:13.638Z,17.70
2018-10-09T07:53:42.019Z,17.80
2018-10-09T07:56:10.404Z,17.80
2018-10-09T07:58:38.815Z,17.90
2018-10-09T08:01:07.363Z,17.70
2018-10-09T08:03:35.769Z,17.80
2018-10-09T08:06:04.171Z,18.00
2018-10-09T08:08:32.565Z,17.20
2018-10-09T08:11:01.273Z,17.30
2018-10-09T08:13:29.624Z,17.40
2018-10-09T08:15:57.983Z,17.70
2018-10-09T08:18:26.411Z,17.80
2018-10-09T08:20:54.816Z,17.90
2018-10-09T08:23:23.207Z,18.00
2018-10-09T08:25:51.608Z,18.10
2018-10-09T08:28:19.999Z,18.20
2018-10-09T08:30:48.360Z,18.40
2018-10-09T08:33:16.738Z,18.40
2018-10-09T08:35:45.175Z,18.60
2018-10-09T08:38:13.569Z,18.50
2018-10-09T08:40:41.995Z,18.60
2018-10-09T08:43:10.450Z,18.80
2018-10-09T08:45:38.970Z,18.40
2018-10-09T08:48:07.360Z,18.50
2018-10-09T08:50:35.790Z,19.10
2018-10-09T08:53:04.209Z,19.40
2018-10-09T08:55:32.645Z,19.60
2018-10-09T08:58:01.066Z,18.50
2018-10-09T09:00:29.457Z,18.00
2018-10-09T09:02:57.919Z,18.60
2018-10-09T09:05:26.318Z,19.10
2018-10-09T09:07:54.741Z,18.90
2018-10-09T09:10:23.141Z,19.60
2018-10-09T09:12:51.559Z,20.20
2018-10-09T09:15:20.046Z,20.70
2018-10-09T09:17:48.428Z,20.60
2018-10-09T09:20:16.810Z,20.70
2018-10-09T09:22:45.231Z,20.30
2018-10-09T09:25:13.623Z,20.50
2018-10-09T09:27:42.204Z,20.40
2018-10-09T09:30:10.495Z,20.30
2018-10-09T09:32:38.900Z,20.20
2018-10-09T09:35:07.368Z,20.00
2018-10-09T09:37:35.768Z,19.90
2018-10-09T09:40:04.233Z,19.70
2018-10-09T09:42:32.694Z,19.40
2018-10-09T09:45:01.075Z,19.50
2018-10-09T09:47:29.469Z,19.70
2018-10-09T09:49:57.865Z,20.10
2018-10-09T09:52:26.279Z,19.80
2018-10-09T09:54:55.339Z,20.00
2018-10-09T09:57:23.839Z,20.70
2018-10-09T09:59:52.349Z,21.30
2018-10-09T10:02:20.772Z,21.30
2018-10-09T10:04:49.311Z,21.80
2018-10-09T10:07:17.720Z,21.80
2018-10-09T10:09:46.143Z,22.20
2018-10-09T10:12:15.405Z,22.70
2018-10-09T10:14:43.803Z,22.70
2018-10-09T10:17:12.221Z,22.80
2018-10-09T10:19:40.650Z,22.90
2018-10-09T10:22:09.076Z,22.80
2018-10-09T10:24:37.701Z,22.50
2018-10-09T10:27:06.152Z,22.60
2018-10-09T10:29:34.560Z,22.90
2018-10-09T10:32:03.006Z,23.00
2018-10-09T10:34:31.456Z,23.40
2018-10-09T10:36:59.873Z,23.90
2018-10-09T10:39:28.336Z,24.10
2018-10-09T10:41:56.813Z,23.70
2018-10-09T10:44:25.200Z,23.70
2018-10-09T10:46:53.611Z,24.20
2018-10-09T10:49:22.039Z,24.30
2018-10-09T10:51:50.503Z,24.30
2018-10-09T10:54:18.914Z,24.00
2018-10-09T10:56:47.267Z,24.20
2018-10-09T10:59:15.648Z,24.30
2018-10-09T11:01:44.095Z,24.10
2018-10-09T11:04:12.426Z,24.50
2018-10-09T11:06:40.836Z,23.80
2018-10-09T11:09:10.090Z,23.40
2018-10-09T11:11:38.524Z,23.50
2018-10-09T11:14:07.040Z,23.20
2018-10-09T11:16:35.420Z,23.20
2018-10-09T11:19:03.814Z,23.20
2018-10-09T11:21:33.342Z,22.80
2018-10-09T11:24:01.672Z,22.50
2018-10-09T11:26:30.107Z,22.30
2018-10-09T11:28:58.797Z,22.20
2018-10-09T11:31:27.162Z,22.00
2018-10-09T11:33:55.552Z,21.90
2018-10-09T11:36:23.932Z,22.10
2018-10-09T11:38:52.345Z,22.00
2018-10-09T11:41:20.720Z,22.10
2018-10-09T11:43:49.167Z,22.10
2018-10-09T11:46:17.579Z,22.00
2018-10-09T11:48:46.041Z,21.90
2018-10-09T11:51:14.472Z,22.00
2018-10-09T11:53:42.888Z,22.00
2018-10-09T11:56:11.262Z,22.00
2018-10-09T11:58:39.769Z,22.00
2018-10-09T12:01:09.753Z,21.80
2018-10-09T12:03:38.483Z,21.70
2018-10-09T12:06:07.093Z,21.70
2018-10-09T12:08:35.743Z,21.60
2018-10-09T12:11:04.223Z,21.50
2018-10-09T12:13:32.712Z,21.40
2018-10-09T12:16:01.697Z,21.30
2018-10-09T12:18:30.264Z,21.30
2018-10-09T12:20:58.729Z,21.30
2018-10-09T12:23:27.150Z,21.20
2018-10-09T12:25:55.858Z,21.10
2018-10-09T12:28:24.315Z,21.30
2018-10-09T12:30:52.731Z,21.20
2018-10-09T12:33:21.159Z,21.40
2018-10-09T12:35:49.555Z,21.40
2018-10-09T12:38:17.920Z,21.50
2018-10-09T12:40:46.292Z,21.60
2018-10-09T12:43:14.742Z,21.60
2018-10-09T12:45:43.133Z,21.50
2018-10-09T12:48:11.509Z,21.40
2018-10-09T12:50:39.866Z,21.30
2018-10-09T12:53:08.331Z,21.20
2018-10-09T12:55:36.643Z,21.10
2018-10-09T12:58:05.014Z,21.00
2018-10-09T13:00:33.368Z,21.00
2018-10-09T13:03:01.770Z,21.10
2018-10-09T13:05:30.051Z,21.30
2018-10-09T13:07:58.421Z,21.20
2018-10-09T13:10:26.755Z,21.20
2018-10-09T13:12:55.128Z,21.20
2018-10-09T13:15:23.504Z,21.30
2018-10-09T13:17:51.863Z,21.30
2018-10-09T13:20:20.233Z,21.30
2018-10-09T13:22:48.649Z,21.40
2018-10-09T13:25:17.003Z,21.40
2018-10-09T13:27:45.345Z,21.50
2018-10-09T13:30:13.795Z,21.40
2018-10-09T13:32:42.141Z,21.30
2018-10-09T13:35:10.475Z,21.40
2018-10-09T13:37:38.831Z,21.30
2018-10-09T13:40:07.219Z,21.40
2018-10-09T13:42:35.588Z,21.40
2018-10-09T13:45:03.968Z,21.40
2018-10-09T13:47:32.436Z,21.40
2018-10-09T13:50:00.735Z,21.40
2018-10-09T13:52:29.083Z,21.40
2018-10-09T13:54:57.453Z,21.40
2018-10-09T13:57:26.020Z,21.30
2018-10-09T13:59:54.304Z,21.30
2018-10-09T14:02:22.642Z,21.40
2018-10-09T14:04:51.000Z,21.40
2018-10-09T14:07:19.338Z,21.40
2018-10-09T14:09:47.697Z,21.40
2018-10-09T14:12:16.041Z,21.50
2018-10-09T14:14:44.406Z,21.50
2018-10-09T14:17:12.758Z,21.40
2018-10-09T14:19:41.126Z,21.40
2018-10-09T14:22:09.542Z,21.30
2018-10-09T14:24:37.906Z,21.40
2018-10-09T14:27:06.272Z,21.40
2018-10-09T14:29:34.627Z,21.40
2018-10-09T14:32:02.992Z,21.40
2018-10-09T14:34:31.364Z,21.40
2018-10-09T14:36:59.736Z,21.40
2018-10-09T14:39:28.105Z,21.40
2018-10-09T14:41:56.472Z,21.40
2018-10-09T14:44:24.808Z,21.40
2018-10-09T14:46:53.172Z,21.30
2018-10-09T14:49:21.520Z,21.20
2018-10-09T14:51:49.922Z,21.00
2018-10-09T14:54:18.220Z,21.10
2018-10-09T14:56:46.559Z,21.30
2018-10-09T14:59:14.892Z,21.30
2018-10-09T15:01:43.258Z,21.30
2018-10-09T15:04:11.597Z,21.40
2018-10-09T15:06:39.951Z,21.40
2018-10-09T15:09:10.353Z,21.20
2018-10-09T15:11:38.869Z,21.30
2018-10-09T15:14:07.244Z,21.30
2018-10-09T15:16:35.636Z,21.20
2018-10-09T15:19:04.015Z,21.30
2018-10-09T15:21:32.387Z,21.30
2018-10-09T15:24:00.747Z,21.30
2018-10-09T15:26:29.128Z,21.10
2018-10-09T15:28:57.651Z,21.20
2018-10-09T15:31:26.076Z,21.30
2018-10-09T15:33:54.426Z,21.30
2018-10-09T15:36:22.814Z,21.30
2018-10-09T15:38:51.176Z,21.20
2018-10-09T15:41:19.685Z,21.20
2018-10-09T15:43:47.965Z,21.20
2018-10-09T15:46:16.311Z,21.20
2018-10-09T15:48:44.660Z,21.30
2018-10-09T15:51:13.030Z,21.20
2018-10-09T15:53:41.367Z,21.20
2018-10-09T15:56:09.748Z,21.10
2018-10-09T15:58:38.110Z,21.10
2018-10-09T16:01:06.664Z,21.10
2018-10-09T16:03:35.011Z,21.10
2018-10-09T16:06:03.458Z,21.10
2018-10-09T16:08:31.804Z,21.00
2018-10-09T16:11:00.163Z,21.00
2018-10-09T16:13:28.536Z,21.10
2018-10-09T16:15:56.920Z,21.00
2018-10-09T16:18:25.322Z,21.10
2018-10-09T16:20:53.788Z,21.00
2018-10-09T16:23:22.031Z,21.00
2018-10-09T16:25:50.402Z,21.00
2018-10-09T16:28:18.749Z,21.00
2018-10-09T16:30:47.148Z,20.90
2018-10-09T16:33:15.493Z,20.90
2018-10-09T16:35:43.852Z,20.90
2018-10-09T16:38:12.196Z,20.80
2018-10-09T16:40:40.573Z,20.80
2018-10-09T16:43:08.969Z,20.70
2018-10-09T16:45:37.304Z,20.60
2018-10-09T16:48:05.720Z,20.50
2018-10-09T16:50:34.076Z,20.50
2018-10-09T16:53:02.456Z,20.20
2018-10-09T16:55:30.787Z,20.00
2018-10-09T16:57:59.143Z,20.00
2018-10-09T17:00:27.556Z,20.10
2018-10-09T17:02:55.872Z,20.00
2018-10-09T17:05:24.227Z,20.00
2018-10-09T17:07:52.616Z,19.80
2018-10-09T17:10:20.967Z,19.80
2018-10-09T17:12:49.448Z,19.60
2018-10-09T17:15:17.846Z,19.60
2018-10-09T17:17:46.208Z,19.60
2018-10-09T17:20:15.268Z,19.50
2018-10-09T17:22:43.678Z,19.60
2018-10-09T17:25:12.016Z,19.50
2018-10-09T17:27:40.396Z,19.50
2018-10-09T17:30:08.903Z,19.40
2018-10-09T17:32:37.415Z,19.40
2018-10-09T17:35:05.932Z,19.30
2018-10-09T17:37:34.299Z,19.20
2018-10-09T17:40:02.660Z,19.00
2018-10-09T17:42:31.033Z,18.60
2018-10-09T17:44:59.383Z,18.10
2018-10-09T17:47:27.783Z,17.90
2018-10-09T17:49:56.144Z,17.80
2018-10-09T17:52:24.536Z,17.80
2018-10-09T17:54:52.873Z,17.60
2018-10-09T17:57:21.253Z,17.90
2018-10-09T17:59:49.623Z,18.00
2018-10-09T18:02:17.998Z,18.20
2018-10-09T18:04:46.668Z,18.20
2018-10-09T18:07:15.064Z,18.30
2018-10-09T18:09:43.518Z,18.30
2018-10-09T18:12:11.887Z,18.30
2018-10-09T18:14:40.309Z,18.30
2018-10-09T18:17:08.872Z,18.30
2018-10-09T18:19:37.241Z,18.30
2018-10-09T18:22:05.619Z,18.20
2018-10-09T18:24:33.961Z,18.20
2018-10-09T18:27:02.332Z,18.30
2018-10-09T18:29:30.682Z,18.30
2018-10-09T18:31:59.072Z,18.30
2018-10-09T18:34:27.427Z,18.30
2018-10-09T18:36:55.805Z,18.20
2018-10-09T18:39:24.215Z,18.20
2018-10-09T18:41:52.662Z,18.20
2018-10-09T18:44:20.968Z,18.10
2018-10-09T18:46:49.330Z,18.10
2018-10-09T18:49:17.736Z,18.00
2018-10-09T18:51:46.088Z,17.80
2018-10-09T18:54:14.451Z,17.20
2018-10-09T18:56:42.810Z,17.10
2018-10-09T18:59:11.186Z,17.10
2018-10-09T19:01:39.536Z,17.00
2018-10-09T19:04:08.026Z,17.00
2018-10-09T19:06:36.388Z,17.10
2018-10-09T19:09:08.600Z,17.20
2018-10-09T19:11:36.984Z,17.00
2018-10-09T19:14:05.394Z,16.90
2018-10-09T19:16:33.741Z,16.90
2018-10-09T19:19:02.185Z,16.70
2018-10-09T19:21:30.566Z,16.70
2018-10-09T19:23:59.021Z,16.70
2018-10-09T19:26:27.328Z,16.70
2018-10-09T19:28:55.876Z,16.60
2018-10-09T19:31:24.255Z,16.40
2018-10-09T19:33:52.704Z,16.00
2018-10-09T19:36:21.101Z,16.00
2018-10-09T19:38:49.476Z,15.90
2018-10-09T19:41:17.999Z,16.10
2018-10-09T19:43:46.408Z,16.20
2018-10-09T19:46:14.851Z,16.40
2018-10-09T19:48:43.268Z,16.10
2018-10-09T19:51:11.809Z,15.80
2018-10-09T19:53:40.025Z,16.00
2018-10-09T19:56:08.459Z,15.90
2018-10-09T19:58:36.852Z,15.40
2018-10-09T20:01:05.275Z,15.20
2018-10-09T20:03:33.683Z,15.10
2018-10-09T20:06:02.024Z,15.10
2018-10-09T20:08:30.417Z,15.00
2018-10-09T20:10:58.850Z,15.10
2018-10-09T20:13:27.210Z,15.20
2018-10-09T20:15:55.747Z,15.40
2018-10-09T20:18:24.118Z,15.50
2018-10-09T20:20:52.482Z,15.60
2018-10-09T20:23:20.878Z,15.90
2018-10-09T20:25:49.267Z,16.00
2018-10-09T20:28:17.653Z,16.10
2018-10-09T20:30:45.999Z,16.20
2018-10-09T20:33:14.376Z,16.30
2018-10-09T20:35:42.805Z,16.20
2018-10-09T20:38:11.199Z,16.20
2018-10-09T20:40:39.560Z,16.30
2018-10-09T20:43:07.996Z,16.30
2018-10-09T20:45:36.444Z,16.30
2018-10-09T20:48:04.816Z,16.40
2018-10-09T20:50:33.184Z,16.30
2018-10-09T20:53:01.591Z,16.30
2018-10-09T20:55:30.010Z,16.30
2018-10-09T20:57:58.366Z,16.20
2018-10-09T21:00:26.760Z,16.00
2018-10-09T21:02:55.164Z,16.00
2018-10-09T21:05:23.704Z,15.90
2018-10-09T21:07:52.132Z,15.80
2018-10-09T21:10:20.553Z,15.80
2018-10-09T21:12:48.907Z,15.80
2018-10-09T21:15:17.319Z,15.80
2018-10-09T21:17:45.787Z,15.80
2018-10-09T21:20:14.188Z,15.90
2018-10-09T21:22:42.586Z,16.00
2018-10-09T21:25:10.963Z,15.90
2018-10-09T21:27:39.355Z,15.80
2018-10-09T21:30:07.808Z,15.70
2018-10-09T21:32:36.211Z,15.70
2018-10-09T21:35:04.792Z,15.80
2018-10-09T21:37:33.205Z,15.90
2018-10-09T21:40:01.588Z,15.90
2018-10-09T21:42:29.994Z,16.00
2018-10-09T21:44:58.502Z,16.10
2018-10-09T21:47:26.847Z,16.10
2018-10-09T21:49:55.240Z,16.00
2018-10-09T21:52:23.629Z,15.90
2018-10-09T21:54:51.996Z,15.70
2018-10-09T21:57:20.335Z,15.60
2018-10-09T21:59:48.715Z,15.40
2018-10-09T22:02:17.116Z,15.30
2018-10-09T22:04:45.502Z,15.20
2018-10-09T22:07:16.478Z,15.10
2018-10-09T22:09:44.948Z,15.20
2018-10-09T22:12:13.489Z,15.20
2018-10-09T22:14:41.875Z,15.20
2018-10-09T22:17:10.221Z,15.10
2018-10-09T22:19:38.588Z,15.10
2018-10-09T22:22:06.961Z,15.10
2018-10-09T22:24:35.332Z,15.10
2018-10-09T22:27:03.761Z,15.20
2018-10-09T22:29:32.130Z,15.20
2018-10-09T22:32:00.505Z,15.10
2018-10-09T22:34:28.889Z,15.10
2018-10-09T22:36:57.244Z,15.10
2018-10-09T22:39:25.631Z,15.20
2018-10-09T22:41:53.973Z,15.20
2018-10-09T22:44:22.339Z,15.30
2018-10-09T22:46:50.708Z,15.20
2018-10-09T22:49:19.105Z,15.20
2018-10-09T22:51:47.474Z,15.40
2018-10-09T22:54:15.956Z,15.40
2018-10-09T22:56:44.307Z,15.40
2018-10-09T22:59:12.708Z,15.30
2018-10-09T23:01:41.067Z,15.40
2018-10-09T23:04:09.463Z,15.30
2018-10-09T23:06:37.935Z,15.30
2018-10-09T23:09:08.843Z,15.20
2018-10-09T23:11:37.258Z,15.20
2018-10-09T23:14:05.665Z,15.10
2018-10-09T23:16:34.111Z,15.10
2018-10-09T23:19:02.529Z,14.90
2018-10-09T23:21:30.941Z,14.80
2018-10-09T23:23:59.283Z,14.80
2018-10-09T23:26:27.668Z,14.90
2018-10-09T23:28:56.027Z,14.80
2018-10-09T23:31:24.390Z,14.90
2018-10-09T23:33:52.795Z,14.90
2018-10-09T23:36:21.185Z,14.80
2018-10-09T23:38:49.839Z,14.90
2018-10-09T23:41:18.232Z,14.80
2018-10-09T23:43:46.592Z,14.80
2018-10-09T23:46:14.964Z,14.80
2018-10-09T23:48:43.316Z,14.80
2018-10-09T23:51:11.700Z,14.70
2018-10-09T23:53:40.068Z,14.80
2018-10-09T23:56:08.444Z,14.70
2018-10-09T23:58:36.786Z,14.70
